sensor_id;sensor_type;location;lat;lon;timestamp;P1;durP1;ratioP1;P2;durP2;ratioP2
8036;SDS011;4061;51.360;7.340;2023-12-20T00:00:45;6.53;;;3.93;;
8036;SDS011;4061;51.360;7.340;2023-12-20T00:03:14;6.00;;;3.73;;
8036;SDS011;4061;51.360;7.340;2023-12-20T00:05:41;7.53;;;4.27;;
8036;SDS011;4061;51.360;7.340;2023-12-20T00:08:08;4.97;;;3.57;;
8036;SDS011;4061;51.360;7.340;2023-12-20T00:10:35;5.97;;;3.60;;
8036;SDS011;4061;51.360;7.340;2023-12-20T00:13:02;3.70;;;3.40;;
8036;SDS011;4061;51.360;7.340;2023-12-20T00:15:29;6.00;;;3.90;;
8036;SDS011;4061;51.360;7.340;2023-12-20T00:17:56;6.13;;;4.13;;
8036;SDS011;4061;51.360;7.340;2023-12-20T00:20:25;7.80;;;4.53;;
8036;SDS011;4061;51.360;7.340;2023-12-20T00:22:53;7.20;;;4.80;;
8036;SDS011;4061;51.360;7.340;2023-12-20T00:25:20;7.43;;;4.83;;
8036;SDS011;4061;51.360;7.340;2023-12-20T00:27:48;12.40;;;5.37;;
8036;SDS011;4061;51.360;7.340;2023-12-20T00:30:15;11.43;;;6.33;;
8036;SDS011;4061;51.360;7.340;2023-12-20T00:32:42;9.70;;;5.53;;
8036;SDS011;4061;51.360;7.340;2023-12-20T00:35:11;9.07;;;5.40;;
8036;SDS011;4061;51.360;7.340;2023-12-20T00:37:39;10.13;;;5.60;;
8036;SDS011;4061;51.360;7.340;2023-12-20T00:40:07;13.63;;;5.87;;
8036;SDS011;4061;51.360;7.340;2023-12-20T00:42:34;14.90;;;6.37;;
8036;SDS011;4061;51.360;7.340;2023-12-20T00:45:01;12.63;;;6.67;;
8036;SDS011;4061;51.360;7.340;2023-12-20T00:47:29;15.37;;;6.63;;
8036;SDS011;4061;51.360;7.340;2023-12-20T00:49:57;12.83;;;6.67;;
8036;SDS011;4061;51.360;7.340;2023-12-20T00:52:24;11.67;;;6.50;;
8036;SDS011;4061;51.360;7.340;2023-12-20T00:54:52;11.90;;;7.23;;
8036;SDS011;4061;51.360;7.340;2023-12-20T00:57:19;13.50;;;7.50;;
8036;SDS011;4061;51.360;7.340;2023-12-20T00:59:46;17.67;;;7.53;;
8036;SDS011;4061;51.360;7.340;2023-12-20T01:02:13;18.57;;;6.50;;
8036;SDS011;4061;51.360;7.340;2023-12-20T01:04:40;13.37;;;7.13;;
8036;SDS011;4061;51.360;7.340;2023-12-20T01:07:07;11.10;;;5.90;;
8036;SDS011;4061;51.360;7.340;2023-12-20T01:09:34;10.83;;;6.10;;
8036;SDS011;4061;51.360;7.340;2023-12-20T01:12:03;9.10;;;6.03;;
8036;SDS011;4061;51.360;7.340;2023-12-20T01:14:30;10.87;;;5.70;;
8036;SDS011;4061;51.360;7.340;2023-12-20T01:16:57;15.77;;;6.07;;
8036;SDS011;4061;51.360;7.340;2023-12-20T01:19:24;9.23;;;5.60;;
8036;SDS011;4061;51.360;7.340;2023-12-20T01:21:52;20.57;;;6.10;;
8036;SDS011;4061;51.360;7.340;2023-12-20T01:24:20;19.67;;;5.73;;
8036;SDS011;4061;51.360;7.340;2023-12-20T01:26:47;10.80;;;5.37;;
8036;SDS011;4061;51.360;7.340;2023-12-20T01:29:15;10.63;;;5.33;;
8036;SDS011;4061;51.360;7.340;2023-12-20T01:31:42;8.33;;;4.97;;
8036;SDS011;4061;51.360;7.340;2023-12-20T01:34:09;12.77;;;5.43;;
8036;SDS011;4061;51.360;7.340;2023-12-20T01:36:37;11.97;;;5.13;;
8036;SDS011;4061;51.360;7.340;2023-12-20T01:39:04;9.83;;;4.90;;
8036;SDS011;4061;51.360;7.340;2023-12-20T01:41:31;12.43;;;5.20;;
8036;SDS011;4061;51.360;7.340;2023-12-20T01:43:58;10.60;;;4.87;;
8036;SDS011;4061;51.360;7.340;2023-12-20T01:46:26;8.13;;;3.80;;
8036;SDS011;4061;51.360;7.340;2023-12-20T01:48:53;11.10;;;4.70;;
8036;SDS011;4061;51.360;7.340;2023-12-20T01:51:20;12.40;;;4.23;;
8036;SDS011;4061;51.360;7.340;2023-12-20T01:53:48;9.63;;;4.23;;
8036;SDS011;4061;51.360;7.340;2023-12-20T01:56:15;11.70;;;4.90;;
8036;SDS011;4061;51.360;7.340;2023-12-20T01:58:43;11.97;;;4.23;;
8036;SDS011;4061;51.360;7.340;2023-12-20T02:01:11;8.10;;;4.50;;
8036;SDS011;4061;51.360;7.340;2023-12-20T02:03:40;10.97;;;4.77;;
8036;SDS011;4061;51.360;7.340;2023-12-20T02:06:07;9.13;;;4.07;;
8036;SDS011;4061;51.360;7.340;2023-12-20T02:08:34;10.30;;;5.57;;
8036;SDS011;4061;51.360;7.340;2023-12-20T02:11:01;12.37;;;4.47;;
8036;SDS011;4061;51.360;7.340;2023-12-20T02:13:28;11.17;;;4.37;;
8036;SDS011;4061;51.360;7.340;2023-12-20T02:15:55;7.90;;;4.60;;
8036;SDS011;4061;51.360;7.340;2023-12-20T02:18:22;10.67;;;5.50;;
8036;SDS011;4061;51.360;7.340;2023-12-20T02:20:51;13.40;;;5.17;;
8036;SDS011;4061;51.360;7.340;2023-12-20T02:23:19;16.20;;;6.03;;
8036;SDS011;4061;51.360;7.340;2023-12-20T02:25:46;12.70;;;5.10;;
8036;SDS011;4061;51.360;7.340;2023-12-20T02:28:13;13.40;;;5.60;;
8036;SDS011;4061;51.360;7.340;2023-12-20T02:30:41;12.70;;;5.57;;
8036;SDS011;4061;51.360;7.340;2023-12-20T02:33:08;11.93;;;5.23;;
8036;SDS011;4061;51.360;7.340;2023-12-20T02:35:37;7.57;;;4.60;;
8036;SDS011;4061;51.360;7.340;2023-12-20T02:38:04;8.77;;;4.90;;
8036;SDS011;4061;51.360;7.340;2023-12-20T02:40:33;10.47;;;4.60;;
8036;SDS011;4061;51.360;7.340;2023-12-20T02:43:00;12.23;;;5.07;;
8036;SDS011;4061;51.360;7.340;2023-12-20T02:45:27;9.87;;;3.17;;
8036;SDS011;4061;51.360;7.340;2023-12-20T02:47:54;22.03;;;3.93;;
8036;SDS011;4061;51.360;7.340;2023-12-20T02:50:21;7.00;;;3.40;;
8036;SDS011;4061;51.360;7.340;2023-12-20T02:52:48;8.47;;;3.30;;
8036;SDS011;4061;51.360;7.340;2023-12-20T02:55:15;8.30;;;3.40;;
8036;SDS011;4061;51.360;7.340;2023-12-20T02:57:43;9.23;;;3.93;;
8036;SDS011;4061;51.360;7.340;2023-12-20T03:00:11;10.37;;;3.50;;
8036;SDS011;4061;51.360;7.340;2023-12-20T03:02:38;8.93;;;3.97;;
8036;SDS011;4061;51.360;7.340;2023-12-20T03:05:05;10.70;;;3.53;;
8036;SDS011;4061;51.360;7.340;2023-12-20T03:07:32;16.43;;;4.40;;
8036;SDS011;4061;51.360;7.340;2023-12-20T03:09:59;8.40;;;3.43;;
8036;SDS011;4061;51.360;7.340;2023-12-20T03:12:26;10.53;;;3.30;;
8036;SDS011;4061;51.360;7.340;2023-12-20T03:14:54;10.77;;;3.33;;
8036;SDS011;4061;51.360;7.340;2023-12-20T03:17:21;8.57;;;3.43;;
8036;SDS011;4061;51.360;7.340;2023-12-20T03:19:48;12.47;;;4.17;;
8036;SDS011;4061;51.360;7.340;2023-12-20T03:22:15;12.07;;;3.63;;
8036;SDS011;4061;51.360;7.340;2023-12-20T03:24:42;8.83;;;3.13;;
8036;SDS011;4061;51.360;7.340;2023-12-20T03:27:09;7.80;;;2.57;;
8036;SDS011;4061;51.360;7.340;2023-12-20T03:29:36;13.43;;;3.20;;
8036;SDS011;4061;51.360;7.340;2023-12-20T03:32:05;7.27;;;2.80;;
8036;SDS011;4061;51.360;7.340;2023-12-20T03:34:33;13.50;;;3.23;;
8036;SDS011;4061;51.360;7.340;2023-12-20T03:37:00;9.33;;;2.77;;
8036;SDS011;4061;51.360;7.340;2023-12-20T03:39:27;8.13;;;3.57;;
8036;SDS011;4061;51.360;7.340;2023-12-20T03:41:54;17.07;;;4.00;;
8036;SDS011;4061;51.360;7.340;2023-12-20T03:44:21;13.50;;;3.27;;
8036;SDS011;4061;51.360;7.340;2023-12-20T03:46:48;15.83;;;3.33;;
8036;SDS011;4061;51.360;7.340;2023-12-20T03:49:17;6.30;;;3.63;;
8036;SDS011;4061;51.360;7.340;2023-12-20T03:51:44;17.07;;;4.83;;
8036;SDS011;4061;51.360;7.340;2023-12-20T03:54:11;6.93;;;4.30;;
8036;SDS011;4061;51.360;7.340;2023-12-20T03:56:38;17.77;;;4.53;;
8036;SDS011;4061;51.360;7.340;2023-12-20T03:59:05;14.90;;;4.60;;
8036;SDS011;4061;51.360;7.340;2023-12-20T04:01:32;19.60;;;4.60;;
8036;SDS011;4061;51.360;7.340;2023-12-20T04:03:59;10.40;;;4.73;;
8036;SDS011;4061;51.360;7.340;2023-12-20T04:06:27;9.13;;;5.10;;
8036;SDS011;4061;51.360;7.340;2023-12-20T04:08:54;14.53;;;5.20;;
8036;SDS011;4061;51.360;7.340;2023-12-20T04:11:21;15.00;;;5.13;;
8036;SDS011;4061;51.360;7.340;2023-12-20T04:13:48;10.27;;;5.17;;
8036;SDS011;4061;51.360;7.340;2023-12-20T04:16:15;17.03;;;6.00;;
8036;SDS011;4061;51.360;7.340;2023-12-20T04:18:42;14.77;;;5.30;;
8036;SDS011;4061;51.360;7.340;2023-12-20T04:21:09;14.77;;;4.63;;
8036;SDS011;4061;51.360;7.340;2023-12-20T04:23:38;12.97;;;4.47;;
8036;SDS011;4061;51.360;7.340;2023-12-20T04:26:05;14.73;;;5.00;;
8036;SDS011;4061;51.360;7.340;2023-12-20T04:28:32;16.13;;;4.73;;
8036;SDS011;4061;51.360;7.340;2023-12-20T04:30:59;9.80;;;4.37;;
8036;SDS011;4061;51.360;7.340;2023-12-20T04:33:26;14.43;;;5.37;;
8036;SDS011;4061;51.360;7.340;2023-12-20T04:35:53;12.20;;;4.70;;
8036;SDS011;4061;51.360;7.340;2023-12-20T04:38:20;18.17;;;4.90;;
8036;SDS011;4061;51.360;7.340;2023-12-20T04:40:48;11.80;;;4.83;;
8036;SDS011;4061;51.360;7.340;2023-12-20T04:43:15;14.00;;;4.77;;
8036;SDS011;4061;51.360;7.340;2023-12-20T04:45:42;7.43;;;4.03;;
8036;SDS011;4061;51.360;7.340;2023-12-20T04:48:09;18.37;;;4.37;;
8036;SDS011;4061;51.360;7.340;2023-12-20T04:50:36;12.27;;;5.10;;
8036;SDS011;4061;51.360;7.340;2023-12-20T04:53:03;15.90;;;4.80;;
8036;SDS011;4061;51.360;7.340;2023-12-20T04:55:30;21.20;;;5.10;;
8036;SDS011;4061;51.360;7.340;2023-12-20T04:57:58;9.80;;;3.57;;
8036;SDS011;4061;51.360;7.340;2023-12-20T05:00:25;12.13;;;3.93;;
8036;SDS011;4061;51.360;7.340;2023-12-20T05:02:52;15.77;;;3.83;;
8036;SDS011;4061;51.360;7.340;2023-12-20T05:05:20;10.23;;;4.20;;
8036;SDS011;4061;51.360;7.340;2023-12-20T05:07:47;8.17;;;4.60;;
8036;SDS011;4061;51.360;7.340;2023-12-20T05:10:14;15.27;;;4.13;;
8036;SDS011;4061;51.360;7.340;2023-12-20T05:12:41;15.97;;;5.27;;
8036;SDS011;4061;51.360;7.340;2023-12-20T05:15:10;15.03;;;4.73;;
8036;SDS011;4061;51.360;7.340;2023-12-20T05:17:37;11.93;;;3.93;;
8036;SDS011;4061;51.360;7.340;2023-12-20T05:20:04;15.03;;;5.70;;
8036;SDS011;4061;51.360;7.340;2023-12-20T05:22:31;11.73;;;4.77;;
8036;SDS011;4061;51.360;7.340;2023-12-20T05:24:58;12.63;;;4.80;;
8036;SDS011;4061;51.360;7.340;2023-12-20T05:27:25;12.80;;;5.23;;
8036;SDS011;4061;51.360;7.340;2023-12-20T05:29:52;12.90;;;4.87;;
8036;SDS011;4061;51.360;7.340;2023-12-20T05:32:23;8.50;;;4.73;;
8036;SDS011;4061;51.360;7.340;2023-12-20T05:34:51;14.20;;;4.77;;
8036;SDS011;4061;51.360;7.340;2023-12-20T05:37:18;16.27;;;4.83;;
8036;SDS011;4061;51.360;7.340;2023-12-20T05:39:45;18.63;;;5.03;;
8036;SDS011;4061;51.360;7.340;2023-12-20T05:42:12;15.00;;;4.47;;
8036;SDS011;4061;51.360;7.340;2023-12-20T05:44:39;16.63;;;3.90;;
8036;SDS011;4061;51.360;7.340;2023-12-20T05:47:06;13.53;;;4.53;;
8036;SDS011;4061;51.360;7.340;2023-12-20T05:49:34;21.40;;;4.23;;
8036;SDS011;4061;51.360;7.340;2023-12-20T05:52:01;11.03;;;4.07;;
8036;SDS011;4061;51.360;7.340;2023-12-20T05:54:29;17.10;;;4.00;;
8036;SDS011;4061;51.360;7.340;2023-12-20T05:56:56;9.93;;;3.60;;
8036;SDS011;4061;51.360;7.340;2023-12-20T05:59:23;18.10;;;4.73;;
8036;SDS011;4061;51.360;7.340;2023-12-20T06:01:50;9.47;;;3.43;;
8036;SDS011;4061;51.360;7.340;2023-12-20T06:04:17;8.23;;;3.40;;
8036;SDS011;4061;51.360;7.340;2023-12-20T06:06:45;16.30;;;4.23;;
8036;SDS011;4061;51.360;7.340;2023-12-20T06:09:12;7.57;;;4.00;;
8036;SDS011;4061;51.360;7.340;2023-12-20T06:11:40;15.60;;;3.97;;
8036;SDS011;4061;51.360;7.340;2023-12-20T06:14:06;11.10;;;4.27;;
8036;SDS011;4061;51.360;7.340;2023-12-20T06:16:33;14.93;;;4.20;;
8036;SDS011;4061;51.360;7.340;2023-12-20T06:19:00;13.63;;;4.57;;
8036;SDS011;4061;51.360;7.340;2023-12-20T06:21:27;10.53;;;3.30;;
8036;SDS011;4061;51.360;7.340;2023-12-20T06:23:55;13.37;;;3.57;;
8036;SDS011;4061;51.360;7.340;2023-12-20T06:26:23;9.93;;;3.43;;
8036;SDS011;4061;51.360;7.340;2023-12-20T06:28:50;16.23;;;4.20;;
8036;SDS011;4061;51.360;7.340;2023-12-20T06:31:17;11.30;;;3.30;;
8036;SDS011;4061;51.360;7.340;2023-12-20T06:33:44;11.87;;;2.87;;
8036;SDS011;4061;51.360;7.340;2023-12-20T06:36:11;18.20;;;3.80;;
8036;SDS011;4061;51.360;7.340;2023-12-20T06:38:39;13.87;;;3.10;;
8036;SDS011;4061;51.360;7.340;2023-12-20T06:41:08;9.57;;;3.07;;
8036;SDS011;4061;51.360;7.340;2023-12-20T06:43:35;12.37;;;3.60;;
8036;SDS011;4061;51.360;7.340;2023-12-20T06:46:02;8.20;;;3.17;;
8036;SDS011;4061;51.360;7.340;2023-12-20T06:48:29;14.30;;;3.20;;
8036;SDS011;4061;51.360;7.340;2023-12-20T06:50:56;15.17;;;3.73;;
8036;SDS011;4061;51.360;7.340;2023-12-20T06:53:24;7.47;;;2.97;;
8036;SDS011;4061;51.360;7.340;2023-12-20T06:55:51;8.70;;;2.60;;
8036;SDS011;4061;51.360;7.340;2023-12-20T06:58:20;11.90;;;3.80;;
8036;SDS011;4061;51.360;7.340;2023-12-20T07:00:47;8.50;;;3.20;;
8036;SDS011;4061;51.360;7.340;2023-12-20T07:03:14;18.43;;;3.30;;
8036;SDS011;4061;51.360;7.340;2023-12-20T07:05:41;7.03;;;3.43;;
8036;SDS011;4061;51.360;7.340;2023-12-20T07:08:08;12.13;;;3.10;;
8036;SDS011;4061;51.360;7.340;2023-12-20T07:10:36;9.50;;;3.37;;
8036;SDS011;4061;51.360;7.340;2023-12-20T07:13:03;7.60;;;3.60;;
8036;SDS011;4061;51.360;7.340;2023-12-20T07:15:31;12.83;;;3.43;;
8036;SDS011;4061;51.360;7.340;2023-12-20T07:17:58;7.63;;;3.27;;
8036;SDS011;4061;51.360;7.340;2023-12-20T07:20:26;14.10;;;3.17;;
8036;SDS011;4061;51.360;7.340;2023-12-20T07:22:53;15.70;;;3.80;;
8036;SDS011;4061;51.360;7.340;2023-12-20T07:25:20;10.10;;;3.37;;
8036;SDS011;4061;51.360;7.340;2023-12-20T07:27:47;11.33;;;3.00;;
8036;SDS011;4061;51.360;7.340;2023-12-20T07:30:14;14.43;;;3.00;;
8036;SDS011;4061;51.360;7.340;2023-12-20T07:32:42;14.43;;;3.37;;
8036;SDS011;4061;51.360;7.340;2023-12-20T07:35:09;11.87;;;3.20;;
8036;SDS011;4061;51.360;7.340;2023-12-20T07:37:36;7.90;;;2.30;;
8036;SDS011;4061;51.360;7.340;2023-12-20T07:40:04;10.00;;;3.00;;
8036;SDS011;4061;51.360;7.340;2023-12-20T07:42:31;11.90;;;2.77;;
8036;SDS011;4061;51.360;7.340;2023-12-20T07:44:58;10.20;;;3.10;;
8036;SDS011;4061;51.360;7.340;2023-12-20T07:47:25;8.73;;;3.00;;
8036;SDS011;4061;51.360;7.340;2023-12-20T07:49:53;10.13;;;3.83;;
8036;SDS011;4061;51.360;7.340;2023-12-20T07:52:21;9.57;;;2.87;;
8036;SDS011;4061;51.360;7.340;2023-12-20T07:54:48;14.40;;;4.00;;
8036;SDS011;4061;51.360;7.340;2023-12-20T07:57:15;11.27;;;3.20;;
8036;SDS011;4061;51.360;7.340;2023-12-20T07:59:42;7.73;;;2.90;;
8036;SDS011;4061;51.360;7.340;2023-12-20T08:02:09;13.77;;;3.03;;
8036;SDS011;4061;51.360;7.340;2023-12-20T08:04:36;10.53;;;3.27;;
8036;SDS011;4061;51.360;7.340;2023-12-20T08:07:05;10.13;;;2.50;;
8036;SDS011;4061;51.360;7.340;2023-12-20T08:09:32;25.97;;;6.07;;
8036;SDS011;4061;51.360;7.340;2023-12-20T08:12:01;7.33;;;3.30;;
8036;SDS011;4061;51.360;7.340;2023-12-20T08:14:28;12.40;;;2.90;;
8036;SDS011;4061;51.360;7.340;2023-12-20T08:16:56;20.30;;;3.60;;
8036;SDS011;4061;51.360;7.340;2023-12-20T08:19:23;12.93;;;3.53;;
8036;SDS011;4061;51.360;7.340;2023-12-20T08:21:50;7.17;;;3.00;;
8036;SDS011;4061;51.360;7.340;2023-12-20T08:24:18;8.23;;;3.73;;
8036;SDS011;4061;51.360;7.340;2023-12-20T08:26:45;14.20;;;3.50;;
8036;SDS011;4061;51.360;7.340;2023-12-20T08:29:12;10.60;;;2.97;;
8036;SDS011;4061;51.360;7.340;2023-12-20T08:31:39;10.70;;;2.83;;
8036;SDS011;4061;51.360;7.340;2023-12-20T08:34:06;15.33;;;2.90;;
8036;SDS011;4061;51.360;7.340;2023-12-20T08:36:33;22.90;;;3.27;;
8036;SDS011;4061;51.360;7.340;2023-12-20T08:39:00;11.47;;;3.13;;
8036;SDS011;4061;51.360;7.340;2023-12-20T08:41:32;10.47;;;2.87;;
8036;SDS011;4061;51.360;7.340;2023-12-20T08:43:59;13.37;;;3.47;;
8036;SDS011;4061;51.360;7.340;2023-12-20T08:46:26;11.50;;;3.30;;
8036;SDS011;4061;51.360;7.340;2023-12-20T08:48:53;9.43;;;2.53;;
8036;SDS011;4061;51.360;7.340;2023-12-20T08:51:20;13.80;;;3.10;;
8036;SDS011;4061;51.360;7.340;2023-12-20T08:53:50;8.13;;;2.70;;
8036;SDS011;4061;51.360;7.340;2023-12-20T08:56:17;11.10;;;2.40;;
8036;SDS011;4061;51.360;7.340;2023-12-20T08:58:45;6.93;;;2.60;;
8036;SDS011;4061;51.360;7.340;2023-12-20T09:01:13;15.13;;;3.50;;
8036;SDS011;4061;51.360;7.340;2023-12-20T09:03:40;10.87;;;2.93;;
8036;SDS011;4061;51.360;7.340;2023-12-20T09:06:07;11.07;;;2.97;;
8036;SDS011;4061;51.360;7.340;2023-12-20T09:08:34;5.10;;;2.90;;
8036;SDS011;4061;51.360;7.340;2023-12-20T09:11:01;7.60;;;2.60;;
8036;SDS011;4061;51.360;7.340;2023-12-20T09:13:28;4.37;;;2.07;;
8036;SDS011;4061;51.360;7.340;2023-12-20T09:15:58;8.67;;;2.63;;
8036;SDS011;4061;51.360;7.340;2023-12-20T09:18:25;9.13;;;2.37;;
8036;SDS011;4061;51.360;7.340;2023-12-20T09:20:52;10.33;;;2.40;;
8036;SDS011;4061;51.360;7.340;2023-12-20T09:23:19;6.97;;;2.77;;
8036;SDS011;4061;51.360;7.340;2023-12-20T09:25:46;7.13;;;2.03;;
8036;SDS011;4061;51.360;7.340;2023-12-20T09:28:13;9.53;;;2.33;;
8036;SDS011;4061;51.360;7.340;2023-12-20T09:30:40;3.87;;;2.03;;
8036;SDS011;4061;51.360;7.340;2023-12-20T09:33:08;6.80;;;2.10;;
8036;SDS011;4061;51.360;7.340;2023-12-20T09:35:35;12.53;;;2.83;;
8036;SDS011;4061;51.360;7.340;2023-12-20T09:38:03;10.77;;;2.20;;
8036;SDS011;4061;51.360;7.340;2023-12-20T09:40:30;14.90;;;2.50;;
8036;SDS011;4061;51.360;7.340;2023-12-20T09:43:01;12.60;;;2.63;;
8036;SDS011;4061;51.360;7.340;2023-12-20T09:45:29;9.90;;;2.23;;
8036;SDS011;4061;51.360;7.340;2023-12-20T09:47:57;11.30;;;2.30;;
8036;SDS011;4061;51.360;7.340;2023-12-20T09:50:26;12.37;;;2.20;;
8036;SDS011;4061;51.360;7.340;2023-12-20T09:52:55;12.50;;;2.23;;
8036;SDS011;4061;51.360;7.340;2023-12-20T09:55:24;6.00;;;1.60;;
8036;SDS011;4061;51.360;7.340;2023-12-20T09:57:52;7.70;;;2.13;;
8036;SDS011;4061;51.360;7.340;2023-12-20T10:00:19;12.20;;;2.10;;
8036;SDS011;4061;51.360;7.340;2023-12-20T10:02:49;9.37;;;2.40;;
8036;SDS011;4061;51.360;7.340;2023-12-20T10:05:17;12.77;;;2.43;;
8036;SDS011;4061;51.360;7.340;2023-12-20T10:07:46;9.90;;;2.53;;
8036;SDS011;4061;51.360;7.340;2023-12-20T10:10:13;5.90;;;2.07;;
8036;SDS011;4061;51.360;7.340;2023-12-20T10:12:41;9.43;;;2.10;;
8036;SDS011;4061;51.360;7.340;2023-12-20T10:15:27;8.13;;;1.90;;
8036;SDS011;4061;51.360;7.340;2023-12-20T10:17:54;8.53;;;1.57;;
8036;SDS011;4061;51.360;7.340;2023-12-20T10:20:21;3.93;;;1.43;;
8036;SDS011;4061;51.360;7.340;2023-12-20T10:22:49;9.20;;;2.33;;
8036;SDS011;4061;51.360;7.340;2023-12-20T10:25:18;12.77;;;1.90;;
8036;SDS011;4061;51.360;7.340;2023-12-20T10:27:45;12.43;;;2.03;;
8036;SDS011;4061;51.360;7.340;2023-12-20T10:30:13;7.47;;;1.70;;
8036;SDS011;4061;51.360;7.340;2023-12-20T10:32:40;6.83;;;1.97;;
8036;SDS011;4061;51.360;7.340;2023-12-20T10:35:08;6.70;;;2.10;;
8036;SDS011;4061;51.360;7.340;2023-12-20T10:37:35;8.60;;;2.10;;
8036;SDS011;4061;51.360;7.340;2023-12-20T10:40:04;4.23;;;1.80;;
8036;SDS011;4061;51.360;7.340;2023-12-20T10:42:32;10.43;;;2.03;;
8036;SDS011;4061;51.360;7.340;2023-12-20T10:44:59;2.80;;;1.30;;
8036;SDS011;4061;51.360;7.340;2023-12-20T10:47:26;8.60;;;1.80;;
8036;SDS011;4061;51.360;7.340;2023-12-20T10:49:54;8.83;;;2.37;;
8036;SDS011;4061;51.360;7.340;2023-12-20T10:52:22;2.73;;;1.80;;
8036;SDS011;4061;51.360;7.340;2023-12-20T10:54:50;7.43;;;2.37;;
8036;SDS011;4061;51.360;7.340;2023-12-20T10:57:19;8.23;;;1.63;;
8036;SDS011;4061;51.360;7.340;2023-12-20T10:59:46;11.90;;;2.63;;
8036;SDS011;4061;51.360;7.340;2023-12-20T11:02:15;7.33;;;2.60;;
8036;SDS011;4061;51.360;7.340;2023-12-20T11:04:44;3.73;;;1.50;;
8036;SDS011;4061;51.360;7.340;2023-12-20T11:07:17;7.47;;;1.63;;
8036;SDS011;4061;51.360;7.340;2023-12-20T11:09:48;12.57;;;2.70;;
8036;SDS011;4061;51.360;7.340;2023-12-20T11:12:16;3.67;;;1.60;;
8036;SDS011;4061;51.360;7.340;2023-12-20T11:14:46;6.13;;;1.87;;
8036;SDS011;4061;51.360;7.340;2023-12-20T11:17:14;5.13;;;1.77;;
8036;SDS011;4061;51.360;7.340;2023-12-20T11:22:27;8.47;;;2.10;;
8036;SDS011;4061;51.360;7.340;2023-12-20T11:24:54;9.50;;;2.00;;
8036;SDS011;4061;51.360;7.340;2023-12-20T11:27:24;15.70;;;2.40;;
8036;SDS011;4061;51.360;7.340;2023-12-20T11:29:53;9.60;;;1.93;;
8036;SDS011;4061;51.360;7.340;2023-12-20T11:32:30;9.53;;;2.07;;
8036;SDS011;4061;51.360;7.340;2023-12-20T11:34:58;6.40;;;2.40;;
8036;SDS011;4061;51.360;7.340;2023-12-20T11:37:28;7.23;;;1.80;;
8036;SDS011;4061;51.360;7.340;2023-12-20T11:39:58;10.33;;;1.90;;
8036;SDS011;4061;51.360;7.340;2023-12-20T11:42:27;5.20;;;1.73;;
8036;SDS011;4061;51.360;7.340;2023-12-20T11:44:55;7.43;;;2.40;;
8036;SDS011;4061;51.360;7.340;2023-12-20T11:47:22;11.70;;;2.83;;
8036;SDS011;4061;51.360;7.340;2023-12-20T11:49:50;6.73;;;2.73;;
8036;SDS011;4061;51.360;7.340;2023-12-20T11:52:17;9.70;;;2.10;;
8036;SDS011;4061;51.360;7.340;2023-12-20T11:54:44;13.10;;;2.67;;
8036;SDS011;4061;51.360;7.340;2023-12-20T11:57:12;14.33;;;2.83;;
8036;SDS011;4061;51.360;7.340;2023-12-20T11:59:39;11.20;;;3.10;;
8036;SDS011;4061;51.360;7.340;2023-12-20T12:02:08;13.83;;;2.90;;
8036;SDS011;4061;51.360;7.340;2023-12-20T12:04:35;8.27;;;3.10;;
8036;SDS011;4061;51.360;7.340;2023-12-20T12:07:02;9.20;;;2.80;;
8036;SDS011;4061;51.360;7.340;2023-12-20T12:09:29;8.23;;;2.90;;
8036;SDS011;4061;51.360;7.340;2023-12-20T12:11:56;10.40;;;2.50;;
8036;SDS011;4061;51.360;7.340;2023-12-20T12:14:23;8.77;;;2.30;;
8036;SDS011;4061;51.360;7.340;2023-12-20T12:16:51;13.53;;;3.43;;
8036;SDS011;4061;51.360;7.340;2023-12-20T12:19:23;4.87;;;2.20;;
8036;SDS011;4061;51.360;7.340;2023-12-20T12:21:50;11.93;;;2.40;;
8036;SDS011;4061;51.360;7.340;2023-12-20T12:24:19;7.13;;;2.20;;
8036;SDS011;4061;51.360;7.340;2023-12-20T12:26:49;3.67;;;1.40;;
8036;SDS011;4061;51.360;7.340;2023-12-20T12:29:17;6.13;;;2.23;;
8036;SDS011;4061;51.360;7.340;2023-12-20T12:31:44;5.63;;;2.33;;
8036;SDS011;4061;51.360;7.340;2023-12-20T12:34:11;8.67;;;1.90;;
8036;SDS011;4061;51.360;7.340;2023-12-20T12:36:39;5.27;;;1.70;;
8036;SDS011;4061;51.360;7.340;2023-12-20T12:39:06;5.53;;;1.83;;
8036;SDS011;4061;51.360;7.340;2023-12-20T12:41:33;6.47;;;1.97;;
8036;SDS011;4061;51.360;7.340;2023-12-20T12:44:00;5.23;;;1.80;;
8036;SDS011;4061;51.360;7.340;2023-12-20T12:46:27;4.73;;;2.00;;
8036;SDS011;4061;51.360;7.340;2023-12-20T12:48:54;11.27;;;2.70;;
8036;SDS011;4061;51.360;7.340;2023-12-20T12:51:21;15.57;;;2.70;;
8036;SDS011;4061;51.360;7.340;2023-12-20T12:53:50;8.57;;;1.93;;
8036;SDS011;4061;51.360;7.340;2023-12-20T12:56:17;9.03;;;2.47;;
8036;SDS011;4061;51.360;7.340;2023-12-20T12:58:44;4.43;;;1.83;;
8036;SDS011;4061;51.360;7.340;2023-12-20T13:01:11;7.27;;;1.93;;
8036;SDS011;4061;51.360;7.340;2023-12-20T13:03:39;8.67;;;2.47;;
8036;SDS011;4061;51.360;7.340;2023-12-20T13:06:06;10.90;;;2.13;;
8036;SDS011;4061;51.360;7.340;2023-12-20T13:08:34;8.23;;;2.50;;
8036;SDS011;4061;51.360;7.340;2023-12-20T13:11:02;12.43;;;2.30;;
8036;SDS011;4061;51.360;7.340;2023-12-20T13:13:29;16.97;;;2.73;;
8036;SDS011;4061;51.360;7.340;2023-12-20T13:15:56;8.70;;;1.93;;
8036;SDS011;4061;51.360;7.340;2023-12-20T13:18:24;7.53;;;2.43;;
8036;SDS011;4061;51.360;7.340;2023-12-20T13:20:51;9.27;;;2.43;;
8036;SDS011;4061;51.360;7.340;2023-12-20T13:23:18;10.43;;;2.73;;
8036;SDS011;4061;51.360;7.340;2023-12-20T13:25:45;10.70;;;3.90;;
8036;SDS011;4061;51.360;7.340;2023-12-20T13:28:13;3.40;;;2.03;;
8036;SDS011;4061;51.360;7.340;2023-12-20T13:30:40;4.73;;;2.40;;
8036;SDS011;4061;51.360;7.340;2023-12-20T13:33:08;7.03;;;2.67;;
8036;SDS011;4061;51.360;7.340;2023-12-20T13:35:35;13.30;;;3.33;;
8036;SDS011;4061;51.360;7.340;2023-12-20T13:38:02;4.63;;;2.27;;
8036;SDS011;4061;51.360;7.340;2023-12-20T13:40:29;8.80;;;2.70;;
8036;SDS011;4061;51.360;7.340;2023-12-20T13:42:56;5.37;;;2.40;;
8036;SDS011;4061;51.360;7.340;2023-12-20T13:45:25;5.17;;;2.20;;
8036;SDS011;4061;51.360;7.340;2023-12-20T13:47:53;11.77;;;2.40;;
8036;SDS011;4061;51.360;7.340;2023-12-20T13:50:20;8.60;;;2.17;;
8036;SDS011;4061;51.360;7.340;2023-12-20T13:52:47;6.23;;;2.50;;
8036;SDS011;4061;51.360;7.340;2023-12-20T13:55:14;3.40;;;1.90;;
8036;SDS011;4061;51.360;7.340;2023-12-20T13:57:41;5.73;;;2.10;;
8036;SDS011;4061;51.360;7.340;2023-12-20T14:00:09;3.43;;;1.67;;
8036;SDS011;4061;51.360;7.340;2023-12-20T14:02:40;6.80;;;2.60;;
8036;SDS011;4061;51.360;7.340;2023-12-20T14:05:08;5.23;;;2.40;;
8036;SDS011;4061;51.360;7.340;2023-12-20T14:07:35;2.23;;;1.87;;
8036;SDS011;4061;51.360;7.340;2023-12-20T14:10:03;2.70;;;2.10;;
8036;SDS011;4061;51.360;7.340;2023-12-20T14:12:30;2.77;;;1.80;;
8036;SDS011;4061;51.360;7.340;2023-12-20T14:15:01;1.63;;;1.53;;
8036;SDS011;4061;51.360;7.340;2023-12-20T14:17:28;2.93;;;1.63;;
8036;SDS011;4061;51.360;7.340;2023-12-20T14:19:58;3.77;;;1.83;;
8036;SDS011;4061;51.360;7.340;2023-12-20T14:22:25;5.27;;;1.83;;
8036;SDS011;4061;51.360;7.340;2023-12-20T14:24:54;4.30;;;1.97;;
8036;SDS011;4061;51.360;7.340;2023-12-20T14:27:22;4.60;;;2.33;;
8036;SDS011;4061;51.360;7.340;2023-12-20T14:29:49;1.50;;;1.40;;
8036;SDS011;4061;51.360;7.340;2023-12-20T14:32:16;1.63;;;1.53;;
8036;SDS011;4061;51.360;7.340;2023-12-20T14:34:43;6.60;;;1.73;;
8036;SDS011;4061;51.360;7.340;2023-12-20T14:37:12;4.77;;;2.17;;
8036;SDS011;4061;51.360;7.340;2023-12-20T14:39:39;2.70;;;2.40;;
8036;SDS011;4061;51.360;7.340;2023-12-20T14:42:06;5.60;;;2.27;;
8036;SDS011;4061;51.360;7.340;2023-12-20T14:44:37;10.00;;;2.50;;
8036;SDS011;4061;51.360;7.340;2023-12-20T14:47:04;5.63;;;2.60;;
8036;SDS011;4061;51.360;7.340;2023-12-20T14:49:31;13.10;;;3.10;;
8036;SDS011;4061;51.360;7.340;2023-12-20T14:51:58;3.53;;;2.90;;
8036;SDS011;4061;51.360;7.340;2023-12-20T14:54:26;13.37;;;3.07;;
8036;SDS011;4061;51.360;7.340;2023-12-20T14:56:53;12.90;;;3.57;;
8036;SDS011;4061;51.360;7.340;2023-12-20T14:59:20;10.70;;;3.10;;
8036;SDS011;4061;51.360;7.340;2023-12-20T15:01:48;6.30;;;3.00;;
8036;SDS011;4061;51.360;7.340;2023-12-20T15:04:16;6.73;;;3.07;;
8036;SDS011;4061;51.360;7.340;2023-12-20T15:06:43;4.30;;;3.23;;
8036;SDS011;4061;51.360;7.340;2023-12-20T15:09:10;4.90;;;3.27;;
8036;SDS011;4061;51.360;7.340;2023-12-20T15:11:38;6.87;;;3.30;;